sensor_id;sensor_type;location;lat;lon;timestamp;pressure;altitude;pressure_sealevel;temperature;humidity
77120;BME280;66073;47.730;9.352;2022-12-17T08:48:47;97362.88;;;-5.80;81.17
77120;BME280;66073;47.730;9.352;2022-12-17T08:51:31;97372.78;;;-5.50;79.05
77120;BME280;66073;47.730;9.352;2022-12-17T08:54:15;97374.31;;;-5.23;77.32
77120;BME280;66073;47.730;9.352;2022-12-17T08:56:59;97374.22;;;-4.89;76.49
77120;BME280;66073;47.730;9.352;2022-12-17T08:59:43;97381.53;;;-4.85;76.19
77120;BME280;66073;47.730;9.352;2022-12-17T09:02:27;97385.31;;;-4.79;76.21
77120;BME280;66073;47.730;9.352;2022-12-17T09:05:11;97391.00;;;-4.60;75.22
77120;BME280;66073;47.730;9.352;2022-12-17T09:08:04;97396.06;;;-4.50;74.62
77120;BME280;66073;47.730;9.352;2022-12-17T09:10:49;97401.28;;;-4.34;74.76
77120;BME280;66073;47.730;9.352;2022-12-17T09:13:34;97403.22;;;-4.28;74.66
77120;BME280;66073;47.730;9.352;2022-12-17T09:16:19;97408.44;;;-4.20;74.48
77120;BME280;66073;47.730;9.352;2022-12-17T09:19:03;97416.88;;;-3.85;73.52
77120;BME280;66073;47.730;9.352;2022-12-17T09:21:48;97426.63;;;-3.71;73.58
77120;BME280;66073;47.730;9.352;2022-12-17T09:24:32;97431.16;;;-3.57;72.72
77120;BME280;66073;47.730;9.352;2022-12-17T09:27:16;97434.88;;;-3.52;72.63
77120;BME280;66073;47.730;9.352;2022-12-17T09:30:01;97448.56;;;-3.50;74.44
77120;BME280;66073;47.730;9.352;2022-12-17T09:32:46;97436.31;;;-3.02;71.93
77120;BME280;66073;47.730;9.352;2022-12-17T09:35:30;97442.69;;;-2.96;71.68
77120;BME280;66073;47.730;9.352;2022-12-17T09:38:15;97428.41;;;-2.86;71.43
77120;BME280;66073;47.730;9.352;2022-12-17T09:41:26;97426.44;;;-2.84;70.89
77120;BME280;66073;47.730;9.352;2022-12-17T09:44:20;97430.34;;;-2.80;70.79
77120;BME280;66073;47.730;9.352;2022-12-17T09:49:51;97419.78;;;-2.86;71.24
77120;BME280;66073;47.730;9.352;2022-12-17T09:52:58;97427.84;;;-2.73;71.23
77120;BME280;66073;47.730;9.352;2022-12-17T09:56:02;97419.31;;;-2.67;71.25
77120;BME280;66073;47.730;9.352;2022-12-17T09:58:47;97426.88;;;-2.72;71.94
77120;BME280;66073;47.730;9.352;2022-12-17T10:01:33;97422.81;;;-2.75;72.30
77120;BME280;66073;47.730;9.352;2022-12-17T10:04:34;97408.81;;;-2.59;71.56
77120;BME280;66073;47.730;9.352;2022-12-17T10:07:30;97398.31;;;-2.28;68.34
77120;BME280;66073;47.730;9.352;2022-12-17T10:13:16;97393.75;;;-2.12;68.53
77120;BME280;66073;47.730;9.352;2022-12-17T10:16:00;97405.22;;;-1.98;67.74
77120;BME280;66073;47.730;9.352;2022-12-17T10:18:45;97399.88;;;-2.05;68.21
77120;BME280;66073;47.730;9.352;2022-12-17T10:21:30;97404.25;;;-1.82;68.02
77120;BME280;66073;47.730;9.352;2022-12-17T10:24:14;97403.00;;;-1.86;68.26
77120;BME280;66073;47.730;9.352;2022-12-17T10:26:58;97397.31;;;-1.75;68.93
77120;BME280;66073;47.730;9.352;2022-12-17T10:29:43;97403.00;;;-1.86;68.81
77120;BME280;66073;47.730;9.352;2022-12-17T10:32:28;97398.19;;;-1.97;69.08
77120;BME280;66073;47.730;9.352;2022-12-17T10:35:20;97404.88;;;-1.80;69.32
77120;BME280;66073;47.730;9.352;2022-12-17T10:38:18;97405.50;;;-1.78;68.75
77120;BME280;66073;47.730;9.352;2022-12-17T10:41:03;97403.00;;;-1.72;67.23
77120;BME280;66073;47.730;9.352;2022-12-17T10:43:47;97411.41;;;-1.32;68.71
77120;BME280;66073;47.730;9.352;2022-12-17T10:46:33;97410.69;;;-1.26;68.58
77120;BME280;66073;47.730;9.352;2022-12-17T10:49:22;97400.66;;;-1.23;67.67
77120;BME280;66073;47.730;9.352;2022-12-17T10:52:23;97392.06;;;-1.17;67.18
77120;BME280;66073;47.730;9.352;2022-12-17T10:55:24;97388.63;;;-1.17;68.02
77120;BME280;66073;47.730;9.352;2022-12-17T10:58:19;97395.16;;;-0.92;67.75
77120;BME280;66073;47.730;9.352;2022-12-17T11:01:06;97389.78;;;-0.69;66.02
77120;BME280;66073;47.730;9.352;2022-12-17T11:03:57;97381.09;;;-0.91;66.43
77120;BME280;66073;47.730;9.352;2022-12-17T11:06:50;97390.47;;;-0.61;66.74
77120;BME280;66073;47.730;9.352;2022-12-17T11:09:47;97392.53;;;-0.56;65.10
77120;BME280;66073;47.730;9.352;2022-12-17T11:12:49;97394.66;;;-0.45;64.81
77120;BME280;66073;47.730;9.352;2022-12-17T11:15:46;97387.41;;;-0.01;64.28
77120;BME280;66073;47.730;9.352;2022-12-17T11:21:56;97392.78;;;-0.09;63.90
77120;BME280;66073;47.730;9.352;2022-12-17T11:24:54;97411.22;;;0.05;63.14
77120;BME280;66073;47.730;9.352;2022-12-17T11:27:51;97408.56;;;-0.02;63.18
77120;BME280;66073;47.730;9.352;2022-12-17T11:30:48;97408.91;;;-0.12;62.48
77120;BME280;66073;47.730;9.352;2022-12-17T11:33:50;97416.75;;;0.10;62.03
77120;BME280;66073;47.730;9.352;2022-12-17T11:37:00;97410.16;;;0.20;61.50
77120;BME280;66073;47.730;9.352;2022-12-17T11:42:55;97412.44;;;0.30;62.06
77120;BME280;66073;47.730;9.352;2022-12-17T11:49:39;97410.38;;;0.53;60.34
77120;BME280;66073;47.730;9.352;2022-12-17T11:55:35;97410.31;;;0.46;60.33
77120;BME280;66073;47.730;9.352;2022-12-17T11:58:31;97414.09;;;0.37;60.83
77120;BME280;66073;47.730;9.352;2022-12-17T12:04:22;97405.31;;;0.52;60.81
77120;BME280;66073;47.730;9.352;2022-12-17T12:07:27;97407.38;;;1.04;61.08
77120;BME280;66073;47.730;9.352;2022-12-17T12:10:26;97400.72;;;1.08;60.04
77120;BME280;66073;47.730;9.352;2022-12-17T12:13:23;97396.94;;;1.17;58.63
77120;BME280;66073;47.730;9.352;2022-12-17T12:25:19;97383.19;;;0.67;61.93
77120;BME280;66073;47.730;9.352;2022-12-17T12:31:09;97389.84;;;0.08;62.65
77120;BME280;66073;47.730;9.352;2022-12-17T12:34:12;97393.13;;;0.10;64.70
77120;BME280;66073;47.730;9.352;2022-12-17T12:37:02;97391.97;;;0.19;64.73
77120;BME280;66073;47.730;9.352;2022-12-17T12:39:54;97396.81;;;0.22;66.50
77120;BME280;66073;47.730;9.352;2022-12-17T12:42:49;97397.94;;;0.34;66.40
77120;BME280;66073;47.730;9.352;2022-12-17T12:45:50;97394.53;;;0.40;67.21
77120;BME280;66073;47.730;9.352;2022-12-17T12:51:37;97398.59;;;0.15;67.32
77120;BME280;66073;47.730;9.352;2022-12-17T12:54:29;97401.75;;;0.04;66.77
77120;BME280;66073;47.730;9.352;2022-12-17T13:06:41;97392.53;;;0.42;67.12
77120;BME280;66073;47.730;9.352;2022-12-17T13:11:48;97404.59;;;0.36;67.63
77120;BME280;66073;47.730;9.352;2022-12-17T13:14:19;97398.91;;;0.33;67.44
77120;BME280;66073;47.730;9.352;2022-12-17T13:21:42;97400.94;;;0.31;67.32
77120;BME280;66073;47.730;9.352;2022-12-17T13:24:20;97394.69;;;0.32;67.25
77120;BME280;66073;47.730;9.352;2022-12-17T13:26:47;97401.78;;;0.38;65.99
77120;BME280;66073;47.730;9.352;2022-12-17T13:32:21;97408.53;;;0.19;67.05
77120;BME280;66073;47.730;9.352;2022-12-17T13:42:45;97405.72;;;0.21;67.20
77120;BME280;66073;47.730;9.352;2022-12-17T13:45:15;97415.09;;;0.09;67.37
77120;BME280;66073;47.730;9.352;2022-12-17T13:47:41;97414.50;;;0.07;67.75
77120;BME280;66073;47.730;9.352;2022-12-17T13:50:20;97420.13;;;0.04;66.71
77120;BME280;66073;47.730;9.352;2022-12-17T13:52:46;97419.38;;;0.10;67.02
77120;BME280;66073;47.730;9.352;2022-12-17T13:55:26;97422.88;;;-0.05;67.62
77120;BME280;66073;47.730;9.352;2022-12-17T13:57:52;97429.00;;;0.03;67.03
77120;BME280;66073;47.730;9.352;2022-12-17T14:00:27;97420.47;;;0.00;66.97
77120;BME280;66073;47.730;9.352;2022-12-17T14:02:55;97422.44;;;-0.08;67.34
77120;BME280;66073;47.730;9.352;2022-12-17T14:05:34;97424.59;;;-0.18;67.31
77120;BME280;66073;47.730;9.352;2022-12-17T14:08:04;97430.28;;;-0.15;68.14
77120;BME280;66073;47.730;9.352;2022-12-17T14:10:31;97434.13;;;-0.11;67.90
77120;BME280;66073;47.730;9.352;2022-12-17T14:13:05;97433.38;;;-0.05;67.71
77120;BME280;66073;47.730;9.352;2022-12-17T14:15:31;97433.38;;;-0.05;68.59
77120;BME280;66073;47.730;9.352;2022-12-17T14:17:58;97441.47;;;0.00;67.04
77120;BME280;66073;47.730;9.352;2022-12-17T14:20:30;97450.22;;;-0.14;68.90
77120;BME280;66073;47.730;9.352;2022-12-17T14:23:11;97453.56;;;-0.26;69.57
77120;BME280;66073;47.730;9.352;2022-12-17T14:25:41;97454.59;;;-0.42;70.54
77120;BME280;66073;47.730;9.352;2022-12-17T14:28:34;97451.34;;;-0.44;71.90
77120;BME280;66073;47.730;9.352;2022-12-17T14:33:39;97452.59;;;-0.61;71.66
77120;BME280;66073;47.730;9.352;2022-12-17T14:36:18;97449.31;;;-0.63;72.12
77120;BME280;66073;47.730;9.352;2022-12-17T14:38:59;97440.47;;;-0.62;72.19
77120;BME280;66073;47.730;9.352;2022-12-17T14:41:27;97444.47;;;-0.66;72.89
77120;BME280;66073;47.730;9.352;2022-12-17T14:44:48;97444.38;;;-0.73;71.63
77120;BME280;66073;47.730;9.352;2022-12-17T14:47:21;97453.44;;;-0.75;72.14
77120;BME280;66073;47.730;9.352;2022-12-17T14:50:06;97456.84;;;-0.75;71.86
77120;BME280;66073;47.730;9.352;2022-12-17T14:52:46;97456.22;;;-0.77;71.00
77120;BME280;66073;47.730;9.352;2022-12-17T14:58:14;97444.38;;;-0.73;69.75
77120;BME280;66073;47.730;9.352;2022-12-17T15:01:24;97450.69;;;-0.67;69.67
77120;BME280;66073;47.730;9.352;2022-12-17T15:03:36;97449.75;;;-0.95;71.14
77120;BME280;66073;47.730;9.352;2022-12-17T15:06:05;97448.75;;;-0.94;70.94
77120;BME280;66073;47.730;9.352;2022-12-17T15:08:35;97450.50;;;-1.02;70.85
77120;BME280;66073;47.730;9.352;2022-12-17T15:11:03;97450.31;;;-1.15;72.70
77120;BME280;66073;47.730;9.352;2022-12-17T15:13:28;97452.28;;;-1.02;71.18
77120;BME280;66073;47.730;9.352;2022-12-17T15:15:54;97458.19;;;-1.15;71.77
77120;BME280;66073;47.730;9.352;2022-12-17T15:18:19;97455.28;;;-1.20;72.03
77120;BME280;66073;47.730;9.352;2022-12-17T15:20:45;97473.78;;;-1.07;70.67
77120;BME280;66073;47.730;9.352;2022-12-17T15:23:15;97470.63;;;-1.02;71.15
77120;BME280;66073;47.730;9.352;2022-12-17T15:25:41;97480.28;;;-1.32;72.33
77120;BME280;66073;47.730;9.352;2022-12-17T15:28:09;97476.88;;;-1.47;73.26
77120;BME280;66073;47.730;9.352;2022-12-17T15:30:35;97482.78;;;-1.53;73.85
77120;BME280;66073;47.730;9.352;2022-12-17T15:33:02;97496.06;;;-1.55;73.47
77120;BME280;66073;47.730;9.352;2022-12-17T15:35:31;97486.13;;;-1.59;71.99
77120;BME280;66073;47.730;9.352;2022-12-17T15:37:59;97498.16;;;-1.50;72.66
77120;BME280;66073;47.730;9.352;2022-12-17T15:40:26;97491.75;;;-1.47;72.04
77120;BME280;66073;47.730;9.352;2022-12-17T15:42:55;97497.06;;;-1.56;72.12
77120;BME280;66073;47.730;9.352;2022-12-17T15:45:41;97503.44;;;-1.73;71.98
77120;BME280;66073;47.730;9.352;2022-12-17T15:48:08;97503.50;;;-1.81;72.77
77120;BME280;66073;47.730;9.352;2022-12-17T15:50:34;97506.50;;;-1.69;72.19
77120;BME280;66073;47.730;9.352;2022-12-17T15:52:59;97513.63;;;-2.01;72.41
77120;BME280;66073;47.730;9.352;2022-12-17T15:55:25;97512.31;;;-1.96;73.59
77120;BME280;66073;47.730;9.352;2022-12-17T15:57:51;97510.78;;;-1.91;72.96
77120;BME280;66073;47.730;9.352;2022-12-17T16:00:16;97510.38;;;-2.03;73.61
77120;BME280;66073;47.730;9.352;2022-12-17T16:02:42;97523.78;;;-2.06;73.94
77120;BME280;66073;47.730;9.352;2022-12-17T16:05:08;97521.47;;;-2.01;73.06
77120;BME280;66073;47.730;9.352;2022-12-17T16:07:34;97510.91;;;-2.07;73.08
77120;BME280;66073;47.730;9.352;2022-12-17T16:10:01;97516.94;;;-2.07;73.01
77120;BME280;66073;47.730;9.352;2022-12-17T16:12:26;97518.88;;;-2.01;73.03
77120;BME280;66073;47.730;9.352;2022-12-17T16:14:52;97513.91;;;-1.95;72.42
77120;BME280;66073;47.730;9.352;2022-12-17T16:17:20;97522.63;;;-2.03;72.49
77120;BME280;66073;47.730;9.352;2022-12-17T16:19:46;97508.81;;;-2.12;73.10
77120;BME280;66073;47.730;9.352;2022-12-17T16:22:11;97512.78;;;-2.24;74.75
77120;BME280;66073;47.730;9.352;2022-12-17T16:24:38;97510.41;;;-2.33;74.65
77120;BME280;66073;47.730;9.352;2022-12-17T16:27:05;97507.63;;;-2.32;73.60
77120;BME280;66073;47.730;9.352;2022-12-17T16:29:31;97500.44;;;-2.30;74.73
77120;BME280;66073;47.730;9.352;2022-12-17T16:31:56;97506.59;;;-2.23;73.14
77120;BME280;66073;47.730;9.352;2022-12-17T16:34:22;97498.81;;;-2.08;72.43
77120;BME280;66073;47.730;9.352;2022-12-17T16:36:47;97505.63;;;-2.22;73.97
77120;BME280;66073;47.730;9.352;2022-12-17T16:39:17;97506.97;;;-2.34;74.34
77120;BME280;66073;47.730;9.352;2022-12-17T16:41:43;97500.66;;;-2.39;73.78
77120;BME280;66073;47.730;9.352;2022-12-17T16:44:09;97499.19;;;-2.42;73.94
77120;BME280;66073;47.730;9.352;2022-12-17T16:46:40;97500.34;;;-2.44;74.65
77120;BME280;66073;47.730;9.352;2022-12-17T16:49:13;97494.03;;;-2.27;73.08
77120;BME280;66073;47.730;9.352;2022-12-17T16:51:39;97503.44;;;-2.41;74.07
77120;BME280;66073;47.730;9.352;2022-12-17T16:54:07;97509.25;;;-2.31;72.99
77120;BME280;66073;47.730;9.352;2022-12-17T16:56:33;97516.88;;;-2.52;74.15
77120;BME280;66073;47.730;9.352;2022-12-17T16:59:02;97525.03;;;-2.47;73.28
77120;BME280;66073;47.730;9.352;2022-12-17T17:01:29;97522.81;;;-2.58;74.70
77120;BME280;66073;47.730;9.352;2022-12-17T17:03:56;97515.47;;;-2.63;75.75
77120;BME280;66073;47.730;9.352;2022-12-17T17:06:23;97511.63;;;-2.75;74.42
77120;BME280;66073;47.730;9.352;2022-12-17T17:08:49;97510.13;;;-2.69;73.83
77120;BME280;66073;47.730;9.352;2022-12-17T17:11:15;97515.00;;;-2.66;74.11
77120;BME280;66073;47.730;9.352;2022-12-17T17:13:42;97518.88;;;-2.54;73.07
77120;BME280;66073;47.730;9.352;2022-12-17T17:16:09;97519.72;;;-2.62;73.27
77120;BME280;66073;47.730;9.352;2022-12-17T17:18:35;97526.00;;;-2.48;73.48
77120;BME280;66073;47.730;9.352;2022-12-17T17:26:22;97531.75;;;-2.53;72.67
77120;BME280;66073;47.730;9.352;2022-12-17T17:28:48;97534.56;;;-2.54;71.74
77120;BME280;66073;47.730;9.352;2022-12-17T17:31:15;97529.50;;;-2.64;72.61
77120;BME280;66073;47.730;9.352;2022-12-17T17:33:43;97544.69;;;-2.59;72.56
77120;BME280;66073;47.730;9.352;2022-12-17T17:36:13;97542.06;;;-2.59;71.87
77120;BME280;66073;47.730;9.352;2022-12-17T17:38:40;97548.94;;;-2.58;72.63
77120;BME280;66073;47.730;9.352;2022-12-17T17:41:08;97544.41;;;-2.64;73.58
77120;BME280;66073;47.730;9.352;2022-12-17T17:43:35;97539.50;;;-2.67;73.07
77120;BME280;66073;47.730;9.352;2022-12-17T17:46:08;97544.25;;;-2.71;72.56
77120;BME280;66073;47.730;9.352;2022-12-17T17:48:35;97552.00;;;-2.85;73.55
77120;BME280;66073;47.730;9.352;2022-12-17T17:51:04;97548.41;;;-2.92;73.84
77120;BME280;66073;47.730;9.352;2022-12-17T17:53:30;97543.75;;;-2.74;72.74
77120;BME280;66073;47.730;9.352;2022-12-17T17:56:01;97541.00;;;-2.73;72.59
77120;BME280;66073;47.730;9.352;2022-12-17T17:58:27;97549.38;;;-2.85;73.95
77120;BME280;66073;47.730;9.352;2022-12-17T18:00:52;97552.31;;;-2.88;73.83
77120;BME280;66073;47.730;9.352;2022-12-17T18:03:18;97554.28;;;-2.90;73.53
77120;BME280;66073;47.730;9.352;2022-12-17T18:05:43;97554.97;;;-3.05;73.75
77120;BME280;66073;47.730;9.352;2022-12-17T18:08:09;97556.50;;;-3.18;75.80
77120;BME280;66073;47.730;9.352;2022-12-17T18:10:35;97566.59;;;-3.23;75.58
77120;BME280;66073;47.730;9.352;2022-12-17T18:13:00;97564.00;;;-3.31;75.69
77120;BME280;66073;47.730;9.352;2022-12-17T18:15:44;97565.31;;;-3.27;75.53
77120;BME280;66073;47.730;9.352;2022-12-17T18:18:11;97569.34;;;-3.17;74.65
77120;BME280;66073;47.730;9.352;2022-12-17T18:20:36;97567.41;;;-3.15;74.48
77120;BME280;66073;47.730;9.352;2022-12-17T18:23:02;97568.72;;;-3.27;75.05
77120;BME280;66073;47.730;9.352;2022-12-17T18:25:27;97564.31;;;-3.26;74.09
77120;BME280;66073;47.730;9.352;2022-12-17T18:27:53;97573.63;;;-3.24;73.53
77120;BME280;66073;47.730;9.352;2022-12-17T18:30:18;97586.22;;;-3.35;73.88
77120;BME280;66073;47.730;9.352;2022-12-17T18:32:45;97591.09;;;-3.32;73.92
77120;BME280;66073;47.730;9.352;2022-12-17T18:35:11;97594.19;;;-3.29;72.96
77120;BME280;66073;47.730;9.352;2022-12-17T18:37:37;97585.72;;;-3.39;74.42
77120;BME280;66073;47.730;9.352;2022-12-17T18:40:04;97580.81;;;-3.42;74.00
77120;BME280;66073;47.730;9.352;2022-12-17T18:42:30;97597.28;;;-3.50;74.23
77120;BME280;66073;47.730;9.352;2022-12-17T18:45:15;97599.41;;;-3.45;74.70
77120;BME280;66073;47.730;9.352;2022-12-17T18:47:40;97604.13;;;-3.48;75.24
77120;BME280;66073;47.730;9.352;2022-12-17T18:50:09;97596.81;;;-3.29;73.69
77120;BME280;66073;47.730;9.352;2022-12-17T18:52:34;97591.25;;;-3.26;72.76
77120;BME280;66073;47.730;9.352;2022-12-17T18:54:59;97588.63;;;-3.42;73.05
77120;BME280;66073;47.730;9.352;2022-12-17T18:57:25;97590.13;;;-3.39;73.00
77120;BME280;66073;47.730;9.352;2022-12-17T18:59:50;97593.56;;;-3.39;73.16
77120;BME280;66073;47.730;9.352;2022-12-17T19:02:16;97585.25;;;-3.42;73.49
77120;BME280;66073;47.730;9.352;2022-12-17T19:04:41;97587.84;;;-3.51;73.55
77120;BME280;66073;47.730;9.352;2022-12-17T19:07:07;97587.50;;;-3.47;74.14
77120;BME280;66073;47.730;9.352;2022-12-17T19:09:33;97587.34;;;-3.54;73.78
77120;BME280;66073;47.730;9.352;2022-12-17T19:12:01;97593.41;;;-3.54;73.59
77120;BME280;66073;47.730;9.352;2022-12-17T19:14:27;97595.00;;;-3.44;73.15
77120;BME280;66073;47.730;9.352;2022-12-17T19:16:54;97603.81;;;-3.45;73.56
77120;BME280;66073;47.730;9.352;2022-12-17T19:19:22;97607.56;;;-3.48;73.06
77120;BME280;66073;47.730;9.352;2022-12-17T19:21:48;97613.59;;;-3.56;73.37
77120;BME280;66073;47.730;9.352;2022-12-17T19:24:16;97618.19;;;-3.58;73.84
77120;BME280;66073;47.730;9.352;2022-12-17T19:26:42;97617.84;;;-3.55;73.46
77120;BME280;66073;47.730;9.352;2022-12-17T19:29:10;97618.00;;;-3.64;73.60
77120;BME280;66073;47.730;9.352;2022-12-17T19:31:36;97626.63;;;-3.64;74.07
77120;BME280;66073;47.730;9.352;2022-12-17T19:34:04;97626.16;;;-3.59;73.40
77120;BME280;66073;47.730;9.352;2022-12-17T19:36:33;97634.16;;;-3.44;73.34
77120;BME280;66073;47.730;9.352;2022-12-17T19:39:02;97627.16;;;-3.36;72.85
77120;BME280;66073;47.730;9.352;2022-12-17T19:41:29;97629.75;;;-3.44;72.64
77120;BME280;66073;47.730;9.352;2022-12-17T19:44:01;97638.56;;;-3.29;72.45
77120;BME280;66073;47.730;9.352;2022-12-17T19:46:29;97633.84;;;-3.33;72.91
77120;BME280;66073;47.730;9.352;2022-12-17T19:48:56;97632.03;;;-3.33;72.66
77120;BME280;66073;47.730;9.352;2022-12-17T19:51:23;97636.78;;;-3.36;72.51
77120;BME280;66073;47.730;9.352;2022-12-17T19:53:49;97635.31;;;-3.39;73.01
77120;BME280;66073;47.730;9.352;2022-12-17T19:58:46;97641.84;;;-3.43;72.25
77120;BME280;66073;47.730;9.352;2022-12-17T20:01:26;97628.59;;;-3.41;73.05
77120;BME280;66073;47.730;9.352;2022-12-17T20:03:53;97639.19;;;-3.35;72.95
77120;BME280;66073;47.730;9.352;2022-12-17T20:06:22;97652.44;;;-3.36;72.61
77120;BME280;66073;47.730;9.352;2022-12-17T20:08:50;97657.47;;;-3.27;72.91
77120;BME280;66073;47.730;9.352;2022-12-17T20:11:17;97664.00;;;-3.23;72.03
77120;BME280;66073;47.730;9.352;2022-12-17T20:14:13;97667.94;;;-3.11;72.81
77120;BME280;66073;47.730;9.352;2022-12-17T20:16:45;97666.63;;;-3.23;72.69
77120;BME280;66073;47.730;9.352;2022-12-17T20:19:18;97666.28;;;-3.12;72.22
77120;BME280;66073;47.730;9.352;2022-12-17T20:21:44;97679.00;;;-3.01;72.32
77120;BME280;66073;47.730;9.352;2022-12-17T20:24:11;97677.69;;;-2.88;71.93
77120;BME280;66073;47.730;9.352;2022-12-17T20:26:37;97669.88;;;-2.96;71.70
77120;BME280;66073;47.730;9.352;2022-12-17T20:29:04;97671.97;;;-2.92;71.48
77120;BME280;66073;47.730;9.352;2022-12-17T20:31:30;97664.31;;;-2.93;71.70
77120;BME280;66073;47.730;9.352;2022-12-17T20:33:55;97665.63;;;-2.89;71.06
77120;BME280;66073;47.730;9.352;2022-12-17T20:36:22;97667.56;;;-2.91;71.46
77120;BME280;66073;47.730;9.352;2022-12-17T20:38:48;97666.41;;;-2.73;71.04
77120;BME280;66073;47.730;9.352;2022-12-17T20:41:20;97665.56;;;-2.57;70.83
77120;BME280;66073;47.730;9.352;2022-12-17T20:43:46;97657.75;;;-2.73;70.30
77120;BME280;66073;47.730;9.352;2022-12-17T20:46:13;97654.00;;;-2.79;70.71
77120;BME280;66073;47.730;9.352;2022-12-17T20:48:41;97657.09;;;-2.75;70.96
77120;BME280;66073;47.730;9.352;2022-12-17T20:51:08;97660.69;;;-2.68;70.58
77120;BME280;66073;47.730;9.352;2022-12-17T20:53:35;97659.38;;;-2.80;71.51
77120;BME280;66073;47.730;9.352;2022-12-17T20:56:05;97661.50;;;-2.68;70.45
77120;BME280;66073;47.730;9.352;2022-12-17T20:58:31;97672.59;;;-2.74;70.60
77120;BME280;66073;47.730;9.352;2022-12-17T21:01:09;97662.19;;;-2.82;71.55
77120;BME280;66073;47.730;9.352;2022-12-17T21:03:35;97668.53;;;-2.84;71.02
77120;BME280;66073;47.730;9.352;2022-12-17T21:06:11;97673.13;;;-2.94;71.36
77120;BME280;66073;47.730;9.352;2022-12-17T21:08:39;97681.59;;;-2.92;71.23
77120;BME280;66073;47.730;9.352;2022-12-17T21:11:05;97676.84;;;-2.81;71.14
77120;BME280;66073;47.730;9.352;2022-12-17T21:13:32;97671.16;;;-2.92;71.33
77120;BME280;66073;47.730;9.352;2022-12-17T21:16:01;97668.72;;;-2.86;70.95
77120;BME280;66073;47.730;9.352;2022-12-17T21:18:29;97672.28;;;-2.79;70.38
77120;BME280;66073;47.730;9.352;2022-12-17T21:21:05;97679.97;;;-3.02;71.71
77120;BME280;66073;47.730;9.352;2022-12-17T21:23:32;97660.69;;;-2.92;71.08
77120;BME280;66073;47.730;9.352;2022-12-17T21:28:26;97672.16;;;-3.02;71.52
77120;BME280;66073;47.730;9.352;2022-12-17T21:30:52;97668.88;;;-2.79;71.23
77120;BME280;66073;47.730;9.352;2022-12-17T21:33:17;97668.19;;;-2.81;71.26
77120;BME280;66073;47.730;9.352;2022-12-17T21:35:43;97675.72;;;-2.86;70.93
77120;BME280;66073;47.730;9.352;2022-12-17T21:38:08;97679.66;;;-2.82;71.46
77120;BME280;66073;47.730;9.352;2022-12-17T21:40:34;97687.47;;;-2.82;71.18
77120;BME280;66073;47.730;9.352;2022-12-17T21:43:00;97682.41;;;-2.76;70.78
77120;BME280;66073;47.730;9.352;2022-12-17T21:45:26;97671.00;;;-2.83;71.08
77120;BME280;66073;47.730;9.352;2022-12-17T21:47:51;97672.44;;;-2.80;71.24
77120;BME280;66073;47.730;9.352;2022-12-17T21:50:17;97672.63;;;-2.82;71.15
77120;BME280;66073;47.730;9.352;2022-12-17T21:52:43;97675.41;;;-2.83;71.55
77120;BME280;66073;47.730;9.352;2022-12-17T21:55:08;97669.16;;;-2.74;71.61
77120;BME280;66073;47.730;9.352;2022-12-17T21:57:34;97672.94;;;-2.77;71.85
77120;BME280;66073;47.730;9.352;2022-12-17T21:59:59;97677.81;;;-2.66;71.65
77120;BME280;66073;47.730;9.352;2022-12-17T22:02:25;97678.97;;;-2.68;71.14
77120;BME280;66073;47.730;9.352;2022-12-17T22:04:50;97690.88;;;-2.58;71.56
77120;BME280;66073;47.730;9.352;2022-12-17T22:07:16;97680.41;;;-2.58;71.47
77120;BME280;66073;47.730;9.352;2022-12-17T22:09:41;97672.72;;;-2.51;70.62
77120;BME280;66073;47.730;9.352;2022-12-17T22:12:06;97678.91;;;-2.52;70.79
77120;BME280;66073;47.730;9.352;2022-12-17T22:14:50;97681.94;;;-2.79;72.22
77120;BME280;66073;47.730;9.352;2022-12-17T22:17:16;97684.53;;;-2.71;71.88
77120;BME280;66073;47.730;9.352;2022-12-17T22:19:41;97681.41;;;-2.67;71.78
77120;BME280;66073;47.730;9.352;2022-12-17T22:22:07;97689.03;;;-2.49;71.17
77120;BME280;66073;47.730;9.352;2022-12-17T22:24:32;97686.63;;;-2.67;71.51
77120;BME280;66073;47.730;9.352;2022-12-17T22:26:57;97688.41;;;-2.59;70.81
77120;BME280;66073;47.730;9.352;2022-12-17T22:29:25;97677.28;;;-2.53;71.99
77120;BME280;66073;47.730;9.352;2022-12-17T22:32:12;97679.38;;;-2.40;72.13
77120;BME280;66073;47.730;9.352;2022-12-17T22:34:57;97681.72;;;-2.54;71.37
77120;BME280;66073;47.730;9.352;2022-12-17T22:37:23;97687.34;;;-2.26;71.14
77120;BME280;66073;47.730;9.352;2022-12-17T22:39:49;97688.38;;;-2.43;71.35
77120;BME280;66073;47.730;9.352;2022-12-17T22:42:14;97691.00;;;-2.43;71.02
77120;BME280;66073;47.730;9.352;2022-12-17T22:45:12;97689.72;;;-2.55;71.48
77120;BME280;66073;47.730;9.352;2022-12-17T22:47:38;97687.22;;;-2.40;71.56
77120;BME280;66073;47.730;9.352;2022-12-17T22:50:04;97691.63;;;-2.33;71.07
77120;BME280;66073;47.730;9.352;2022-12-17T22:52:29;97689.50;;;-2.45;71.54
77120;BME280;66073;47.730;9.352;2022-12-17T22:54:56;97681.78;;;-2.31;71.30
77120;BME280;66073;47.730;9.352;2022-12-17T22:57:21;97680.66;;;-2.28;71.06
77120;BME280;66073;47.730;9.352;2022-12-17T22:59:48;97686.03;;;-2.30;71.11
77120;BME280;66073;47.730;9.352;2022-12-17T23:02:14;97682.47;;;-2.37;71.58
77120;BME280;66073;47.730;9.352;2022-12-17T23:04:39;97689.16;;;-2.42;72.37
77120;BME280;66073;47.730;9.352;2022-12-17T23:07:05;97692.38;;;-2.24;71.25
77120;BME280;66073;47.730;9.352;2022-12-17T23:09:31;97692.88;;;-2.21;71.42
77120;BME280;66073;47.730;9.352;2022-12-17T23:11:56;97688.53;;;-2.36;71.36
77120;BME280;66073;47.730;9.352;2022-12-17T23:14:22;97678.41;;;-2.47;72.34
77120;BME280;66073;47.730;9.352;2022-12-17T23:16:47;97682.94;;;-2.25;71.24
77120;BME280;66073;47.730;9.352;2022-12-17T23:19:13;97682.69;;;-2.08;71.11
77120;BME280;66073;47.730;9.352;2022-12-17T23:21:38;97690.81;;;-2.03;70.86
77120;BME280;66073;47.730;9.352;2022-12-17T23:24:04;97683.94;;;-1.95;70.20
77120;BME280;66073;47.730;9.352;2022-12-17T23:26:33;97692.81;;;-2.05;70.23
77120;BME280;66073;47.730;9.352;2022-12-17T23:29:06;97693.78;;;-2.06;71.15
77120;BME280;66073;47.730;9.352;2022-12-17T23:31:36;97697.09;;;-2.12;71.66
77120;BME280;66073;47.730;9.352;2022-12-17T23:34:03;97692.59;;;-2.34;71.71
77120;BME280;66073;47.730;9.352;2022-12-17T23:36:29;97695.09;;;-2.10;71.60
77120;BME280;66073;47.730;9.352;2022-12-17T23:38:56;97686.28;;;-1.78;70.63
77120;BME280;66073;47.730;9.352;2022-12-17T23:41:27;97692.72;;;-1.88;71.29
77120;BME280;66073;47.730;9.352;2022-12-17T23:43:54;97703.47;;;-1.75;71.14
77120;BME280;66073;47.730;9.352;2022-12-17T23:46:20;97698.78;;;-1.88;71.10